sensor_id;sensor_type;location;lat;lon;timestamp;P1;durP1;ratioP1;P2;durP2;ratioP2
2486;SDS011;1254;49.144;8.212;2023-01-25T00:00:49;20.90;;;13.10;;
2486;SDS011;1254;49.144;8.212;2023-01-25T00:03:17;19.17;;;12.10;;
2486;SDS011;1254;49.144;8.212;2023-01-25T00:05:45;18.40;;;12.48;;
2486;SDS011;1254;49.144;8.212;2023-01-25T00:08:14;28.83;;;15.80;;
2486;SDS011;1254;49.144;8.212;2023-01-25T00:10:42;23.65;;;11.80;;
2486;SDS011;1254;49.144;8.212;2023-01-25T00:13:10;20.98;;;13.48;;
2486;SDS011;1254;49.144;8.212;2023-01-25T00:15:40;20.38;;;13.23;;
2486;SDS011;1254;49.144;8.212;2023-01-25T00:18:08;21.52;;;11.90;;
2486;SDS011;1254;49.144;8.212;2023-01-25T00:20:36;17.50;;;12.88;;
2486;SDS011;1254;49.144;8.212;2023-01-25T00:23:05;20.00;;;12.80;;
2486;SDS011;1254;49.144;8.212;2023-01-25T00:25:33;16.98;;;11.65;;
2486;SDS011;1254;49.144;8.212;2023-01-25T00:28:01;21.30;;;13.90;;
2486;SDS011;1254;49.144;8.212;2023-01-25T00:30:29;22.13;;;13.50;;
2486;SDS011;1254;49.144;8.212;2023-01-25T00:33:01;23.67;;;13.55;;
2486;SDS011;1254;49.144;8.212;2023-01-25T00:35:30;21.38;;;14.60;;
2486;SDS011;1254;49.144;8.212;2023-01-25T00:38:00;22.13;;;13.30;;
2486;SDS011;1254;49.144;8.212;2023-01-25T00:40:28;21.50;;;13.98;;
2486;SDS011;1254;49.144;8.212;2023-01-25T00:42:58;25.58;;;14.68;;
2486;SDS011;1254;49.144;8.212;2023-01-25T00:45:26;21.27;;;13.98;;
2486;SDS011;1254;49.144;8.212;2023-01-25T00:47:54;21.13;;;14.15;;
2486;SDS011;1254;49.144;8.212;2023-01-25T00:50:23;23.90;;;14.57;;
2486;SDS011;1254;49.144;8.212;2023-01-25T00:52:51;22.38;;;14.05;;
2486;SDS011;1254;49.144;8.212;2023-01-25T00:55:19;24.95;;;15.75;;
2486;SDS011;1254;49.144;8.212;2023-01-25T00:57:48;25.55;;;15.18;;
2486;SDS011;1254;49.144;8.212;2023-01-25T01:00:16;23.48;;;15.50;;
2486;SDS011;1254;49.144;8.212;2023-01-25T01:02:45;25.58;;;16.25;;
2486;SDS011;1254;49.144;8.212;2023-01-25T01:05:13;19.52;;;13.50;;
2486;SDS011;1254;49.144;8.212;2023-01-25T01:07:43;24.67;;;14.32;;
2486;SDS011;1254;49.144;8.212;2023-01-25T01:10:11;29.13;;;17.65;;
2486;SDS011;1254;49.144;8.212;2023-01-25T01:12:39;26.17;;;16.27;;
2486;SDS011;1254;49.144;8.212;2023-01-25T01:15:08;24.85;;;14.23;;
2486;SDS011;1254;49.144;8.212;2023-01-25T01:17:36;23.25;;;14.77;;
2486;SDS011;1254;49.144;8.212;2023-01-25T01:20:04;23.33;;;14.45;;
2486;SDS011;1254;49.144;8.212;2023-01-25T01:22:32;28.00;;;16.33;;
2486;SDS011;1254;49.144;8.212;2023-01-25T01:25:02;26.90;;;16.02;;
2486;SDS011;1254;49.144;8.212;2023-01-25T01:27:30;21.67;;;13.65;;
2486;SDS011;1254;49.144;8.212;2023-01-25T01:29:58;22.17;;;14.40;;
2486;SDS011;1254;49.144;8.212;2023-01-25T01:32:25;24.17;;;14.98;;
2486;SDS011;1254;49.144;8.212;2023-01-25T01:34:53;19.65;;;14.15;;
2486;SDS011;1254;49.144;8.212;2023-01-25T01:37:21;26.67;;;15.32;;
2486;SDS011;1254;49.144;8.212;2023-01-25T01:39:50;28.10;;;15.57;;
2486;SDS011;1254;49.144;8.212;2023-01-25T01:42:19;27.08;;;15.32;;
2486;SDS011;1254;49.144;8.212;2023-01-25T01:44:49;24.45;;;14.73;;
2486;SDS011;1254;49.144;8.212;2023-01-25T01:47:23;23.70;;;14.90;;
2486;SDS011;1254;49.144;8.212;2023-01-25T01:49:58;27.85;;;16.50;;
2486;SDS011;1254;49.144;8.212;2023-01-25T01:52:31;26.73;;;17.05;;
2486;SDS011;1254;49.144;8.212;2023-01-25T01:55:01;21.70;;;14.73;;
2486;SDS011;1254;49.144;8.212;2023-01-25T01:57:33;25.45;;;14.63;;
2486;SDS011;1254;49.144;8.212;2023-01-25T02:00:05;25.58;;;16.10;;
2486;SDS011;1254;49.144;8.212;2023-01-25T02:02:42;26.35;;;15.43;;
2486;SDS011;1254;49.144;8.212;2023-01-25T02:05:11;27.45;;;15.80;;
2486;SDS011;1254;49.144;8.212;2023-01-25T02:07:42;28.23;;;16.33;;
2486;SDS011;1254;49.144;8.212;2023-01-25T02:10:12;25.42;;;13.93;;
2486;SDS011;1254;49.144;8.212;2023-01-25T02:12:43;24.85;;;15.82;;
2486;SDS011;1254;49.144;8.212;2023-01-25T02:15:12;30.75;;;17.50;;
2486;SDS011;1254;49.144;8.212;2023-01-25T02:17:40;24.05;;;15.82;;
2486;SDS011;1254;49.144;8.212;2023-01-25T02:20:13;28.88;;;16.85;;
2486;SDS011;1254;49.144;8.212;2023-01-25T02:22:47;30.20;;;16.17;;
2486;SDS011;1254;49.144;8.212;2023-01-25T02:25:19;24.33;;;15.05;;
2486;SDS011;1254;49.144;8.212;2023-01-25T02:27:50;23.88;;;14.98;;
2486;SDS011;1254;49.144;8.212;2023-01-25T02:30:19;26.60;;;15.57;;
2486;SDS011;1254;49.144;8.212;2023-01-25T02:32:50;29.63;;;16.73;;
2486;SDS011;1254;49.144;8.212;2023-01-25T02:35:19;26.20;;;15.48;;
2486;SDS011;1254;49.144;8.212;2023-01-25T02:37:48;26.40;;;16.25;;
2486;SDS011;1254;49.144;8.212;2023-01-25T02:40:17;22.55;;;14.05;;
2486;SDS011;1254;49.144;8.212;2023-01-25T02:42:47;26.98;;;16.60;;
2486;SDS011;1254;49.144;8.212;2023-01-25T02:45:16;24.88;;;16.13;;
2486;SDS011;1254;49.144;8.212;2023-01-25T02:47:46;24.83;;;16.15;;
2486;SDS011;1254;49.144;8.212;2023-01-25T02:50:14;26.10;;;16.70;;
2486;SDS011;1254;49.144;8.212;2023-01-25T02:52:43;32.53;;;16.63;;
2486;SDS011;1254;49.144;8.212;2023-01-25T02:55:11;24.95;;;15.35;;
2486;SDS011;1254;49.144;8.212;2023-01-25T02:57:42;24.80;;;14.85;;
2486;SDS011;1254;49.144;8.212;2023-01-25T03:00:13;26.13;;;16.55;;
2486;SDS011;1254;49.144;8.212;2023-01-25T03:02:43;27.98;;;16.63;;
2486;SDS011;1254;49.144;8.212;2023-01-25T03:05:11;28.58;;;17.83;;
2486;SDS011;1254;49.144;8.212;2023-01-25T03:07:39;24.83;;;15.98;;
2486;SDS011;1254;49.144;8.212;2023-01-25T03:10:08;24.23;;;15.18;;
2486;SDS011;1254;49.144;8.212;2023-01-25T03:12:37;24.30;;;14.40;;
2486;SDS011;1254;49.144;8.212;2023-01-25T03:15:06;25.65;;;15.52;;
2486;SDS011;1254;49.144;8.212;2023-01-25T03:17:36;27.23;;;16.50;;
2486;SDS011;1254;49.144;8.212;2023-01-25T03:20:04;27.00;;;15.85;;
2486;SDS011;1254;49.144;8.212;2023-01-25T03:22:34;25.20;;;15.82;;
2486;SDS011;1254;49.144;8.212;2023-01-25T03:25:02;25.98;;;15.93;;
2486;SDS011;1254;49.144;8.212;2023-01-25T03:27:33;27.88;;;15.23;;
2486;SDS011;1254;49.144;8.212;2023-01-25T03:30:06;28.10;;;16.65;;
2486;SDS011;1254;49.144;8.212;2023-01-25T03:32:36;27.67;;;17.20;;
2486;SDS011;1254;49.144;8.212;2023-01-25T03:35:09;24.75;;;15.05;;
2486;SDS011;1254;49.144;8.212;2023-01-25T03:37:37;23.48;;;15.82;;
2486;SDS011;1254;49.144;8.212;2023-01-25T03:40:05;31.10;;;15.77;;
2486;SDS011;1254;49.144;8.212;2023-01-25T03:42:34;27.83;;;16.35;;
2486;SDS011;1254;49.144;8.212;2023-01-25T03:45:03;26.25;;;16.33;;
2486;SDS011;1254;49.144;8.212;2023-01-25T03:47:31;26.98;;;15.43;;
2486;SDS011;1254;49.144;8.212;2023-01-25T03:50:01;26.40;;;15.43;;
2486;SDS011;1254;49.144;8.212;2023-01-25T03:52:29;23.90;;;15.00;;
2486;SDS011;1254;49.144;8.212;2023-01-25T03:55:04;25.13;;;16.13;;
2486;SDS011;1254;49.144;8.212;2023-01-25T03:57:32;26.60;;;16.88;;
2486;SDS011;1254;49.144;8.212;2023-01-25T04:00:04;25.05;;;14.70;;
2486;SDS011;1254;49.144;8.212;2023-01-25T04:02:41;27.60;;;16.25;;
2486;SDS011;1254;49.144;8.212;2023-01-25T04:05:14;29.58;;;17.38;;
2486;SDS011;1254;49.144;8.212;2023-01-25T04:07:45;25.60;;;15.60;;
2486;SDS011;1254;49.144;8.212;2023-01-25T04:10:15;23.13;;;15.02;;
2486;SDS011;1254;49.144;8.212;2023-01-25T04:12:45;27.70;;;16.85;;
2486;SDS011;1254;49.144;8.212;2023-01-25T04:15:14;30.30;;;15.50;;
2486;SDS011;1254;49.144;8.212;2023-01-25T04:17:42;28.58;;;17.58;;
2486;SDS011;1254;49.144;8.212;2023-01-25T04:20:20;28.67;;;16.85;;
2486;SDS011;1254;49.144;8.212;2023-01-25T04:22:49;28.23;;;17.45;;
2486;SDS011;1254;49.144;8.212;2023-01-25T04:25:19;22.13;;;15.20;;
2486;SDS011;1254;49.144;8.212;2023-01-25T04:27:52;26.45;;;15.70;;
2486;SDS011;1254;49.144;8.212;2023-01-25T04:30:20;27.23;;;16.17;;
2486;SDS011;1254;49.144;8.212;2023-01-25T04:32:49;30.05;;;15.82;;
2486;SDS011;1254;49.144;8.212;2023-01-25T04:35:26;27.90;;;15.77;;
2486;SDS011;1254;49.144;8.212;2023-01-25T04:37:55;27.23;;;16.13;;
2486;SDS011;1254;49.144;8.212;2023-01-25T04:40:26;29.35;;;16.00;;
2486;SDS011;1254;49.144;8.212;2023-01-25T04:42:55;27.98;;;16.92;;
2486;SDS011;1254;49.144;8.212;2023-01-25T04:45:23;28.73;;;17.80;;
2486;SDS011;1254;49.144;8.212;2023-01-25T04:47:57;27.73;;;15.45;;
2486;SDS011;1254;49.144;8.212;2023-01-25T04:50:28;30.10;;;15.55;;
2486;SDS011;1254;49.144;8.212;2023-01-25T04:52:58;27.48;;;15.63;;
2486;SDS011;1254;49.144;8.212;2023-01-25T04:55:28;28.98;;;15.50;;
2486;SDS011;1254;49.144;8.212;2023-01-25T04:57:57;24.83;;;15.60;;
2486;SDS011;1254;49.144;8.212;2023-01-25T05:00:25;26.90;;;15.93;;
2486;SDS011;1254;49.144;8.212;2023-01-25T05:02:54;28.25;;;16.00;;
2486;SDS011;1254;49.144;8.212;2023-01-25T05:05:25;25.42;;;15.00;;
2486;SDS011;1254;49.144;8.212;2023-01-25T05:07:56;27.95;;;15.80;;
2486;SDS011;1254;49.144;8.212;2023-01-25T05:10:24;29.67;;;17.13;;
2486;SDS011;1254;49.144;8.212;2023-01-25T05:13:15;26.67;;;14.80;;
2486;SDS011;1254;49.144;8.212;2023-01-25T05:15:44;27.90;;;16.08;;
2486;SDS011;1254;49.144;8.212;2023-01-25T05:18:13;28.40;;;16.30;;
2486;SDS011;1254;49.144;8.212;2023-01-25T05:20:41;26.48;;;15.75;;
2486;SDS011;1254;49.144;8.212;2023-01-25T05:23:11;29.10;;;16.20;;
2486;SDS011;1254;49.144;8.212;2023-01-25T05:25:40;28.55;;;16.00;;
2486;SDS011;1254;49.144;8.212;2023-01-25T05:28:31;24.67;;;15.30;;
2486;SDS011;1254;49.144;8.212;2023-01-25T05:31:22;30.02;;;16.85;;
2486;SDS011;1254;49.144;8.212;2023-01-25T05:33:50;28.38;;;15.43;;
2486;SDS011;1254;49.144;8.212;2023-01-25T05:36:20;26.38;;;14.30;;
2486;SDS011;1254;49.144;8.212;2023-01-25T05:38:49;25.52;;;14.55;;
2486;SDS011;1254;49.144;8.212;2023-01-25T05:41:18;22.05;;;14.50;;
2486;SDS011;1254;49.144;8.212;2023-01-25T05:43:46;21.85;;;13.68;;
2486;SDS011;1254;49.144;8.212;2023-01-25T05:46:15;24.65;;;13.35;;
2486;SDS011;1254;49.144;8.212;2023-01-25T05:48:43;20.75;;;12.10;;
2486;SDS011;1254;49.144;8.212;2023-01-25T05:51:11;21.80;;;12.70;;
2486;SDS011;1254;49.144;8.212;2023-01-25T05:53:39;23.70;;;13.65;;
2486;SDS011;1254;49.144;8.212;2023-01-25T05:56:09;22.83;;;12.20;;
2486;SDS011;1254;49.144;8.212;2023-01-25T05:58:37;22.20;;;13.07;;
2486;SDS011;1254;49.144;8.212;2023-01-25T06:01:06;22.27;;;13.40;;
2486;SDS011;1254;49.144;8.212;2023-01-25T06:03:46;21.88;;;14.15;;
2486;SDS011;1254;49.144;8.212;2023-01-25T06:06:14;24.13;;;14.05;;
2486;SDS011;1254;49.144;8.212;2023-01-25T06:08:43;24.27;;;15.13;;
2486;SDS011;1254;49.144;8.212;2023-01-25T06:11:14;19.05;;;12.75;;
2486;SDS011;1254;49.144;8.212;2023-01-25T06:13:45;22.35;;;13.65;;
2486;SDS011;1254;49.144;8.212;2023-01-25T06:16:13;25.02;;;14.40;;
2486;SDS011;1254;49.144;8.212;2023-01-25T06:18:42;16.08;;;11.15;;
2486;SDS011;1254;49.144;8.212;2023-01-25T06:21:31;20.27;;;12.15;;
2486;SDS011;1254;49.144;8.212;2023-01-25T06:24:00;25.70;;;12.68;;
2486;SDS011;1254;49.144;8.212;2023-01-25T06:26:29;25.25;;;14.68;;
2486;SDS011;1254;49.144;8.212;2023-01-25T06:28:57;21.55;;;11.95;;
2486;SDS011;1254;49.144;8.212;2023-01-25T06:31:25;23.48;;;13.35;;
2486;SDS011;1254;49.144;8.212;2023-01-25T06:33:54;21.65;;;13.00;;
2486;SDS011;1254;49.144;8.212;2023-01-25T06:36:24;20.48;;;12.65;;
2486;SDS011;1254;49.144;8.212;2023-01-25T06:38:52;17.80;;;10.98;;
2486;SDS011;1254;49.144;8.212;2023-01-25T06:41:20;24.20;;;13.27;;
2486;SDS011;1254;49.144;8.212;2023-01-25T06:43:50;24.77;;;14.57;;
2486;SDS011;1254;49.144;8.212;2023-01-25T06:46:18;22.35;;;13.00;;
2486;SDS011;1254;49.144;8.212;2023-01-25T06:48:46;20.98;;;14.18;;
2486;SDS011;1254;49.144;8.212;2023-01-25T06:51:14;21.60;;;12.85;;
2486;SDS011;1254;49.144;8.212;2023-01-25T06:53:43;22.45;;;13.00;;
2486;SDS011;1254;49.144;8.212;2023-01-25T06:56:12;22.17;;;12.05;;
2486;SDS011;1254;49.144;8.212;2023-01-25T06:58:40;16.98;;;11.68;;
2486;SDS011;1254;49.144;8.212;2023-01-25T07:01:11;18.40;;;11.52;;
2486;SDS011;1254;49.144;8.212;2023-01-25T07:03:39;18.05;;;11.50;;
2486;SDS011;1254;49.144;8.212;2023-01-25T07:06:08;18.48;;;11.40;;
2486;SDS011;1254;49.144;8.212;2023-01-25T07:08:36;19.30;;;12.20;;
2486;SDS011;1254;49.144;8.212;2023-01-25T07:11:06;19.77;;;12.68;;
2486;SDS011;1254;49.144;8.212;2023-01-25T07:13:38;19.65;;;11.27;;
2486;SDS011;1254;49.144;8.212;2023-01-25T07:16:07;19.40;;;12.40;;
2486;SDS011;1254;49.144;8.212;2023-01-25T07:18:36;18.70;;;11.43;;
2486;SDS011;1254;49.144;8.212;2023-01-25T07:21:06;25.98;;;13.98;;
2486;SDS011;1254;49.144;8.212;2023-01-25T07:23:34;27.10;;;14.95;;
2486;SDS011;1254;49.144;8.212;2023-01-25T07:26:04;22.73;;;13.48;;
2486;SDS011;1254;49.144;8.212;2023-01-25T07:28:32;26.45;;;14.82;;
2486;SDS011;1254;49.144;8.212;2023-01-25T07:31:04;24.02;;;13.82;;
2486;SDS011;1254;49.144;8.212;2023-01-25T07:33:33;22.42;;;13.25;;
2486;SDS011;1254;49.144;8.212;2023-01-25T07:36:04;21.33;;;13.43;;
2486;SDS011;1254;49.144;8.212;2023-01-25T07:38:32;24.23;;;12.98;;
2486;SDS011;1254;49.144;8.212;2023-01-25T07:41:01;22.45;;;13.27;;
2486;SDS011;1254;49.144;8.212;2023-01-25T07:43:29;17.63;;;11.00;;
2486;SDS011;1254;49.144;8.212;2023-01-25T07:46:01;19.17;;;12.02;;
2486;SDS011;1254;49.144;8.212;2023-01-25T07:48:30;18.35;;;11.90;;
2486;SDS011;1254;49.144;8.212;2023-01-25T07:50:58;14.73;;;10.63;;
2486;SDS011;1254;49.144;8.212;2023-01-25T07:53:42;15.63;;;9.48;;
2486;SDS011;1254;49.144;8.212;2023-01-25T07:56:11;15.18;;;9.50;;
2486;SDS011;1254;49.144;8.212;2023-01-25T07:58:39;16.40;;;10.52;;
2486;SDS011;1254;49.144;8.212;2023-01-25T08:01:08;15.98;;;9.23;;
2486;SDS011;1254;49.144;8.212;2023-01-25T08:03:39;14.02;;;10.02;;
2486;SDS011;1254;49.144;8.212;2023-01-25T08:06:07;23.98;;;9.05;;
2486;SDS011;1254;49.144;8.212;2023-01-25T08:08:36;13.70;;;10.00;;
2486;SDS011;1254;49.144;8.212;2023-01-25T08:11:10;16.02;;;9.73;;
2486;SDS011;1254;49.144;8.212;2023-01-25T08:13:39;15.55;;;11.13;;
2486;SDS011;1254;49.144;8.212;2023-01-25T08:16:10;16.90;;;11.15;;
2486;SDS011;1254;49.144;8.212;2023-01-25T08:18:38;18.02;;;11.15;;
2486;SDS011;1254;49.144;8.212;2023-01-25T08:21:06;15.82;;;11.40;;
2486;SDS011;1254;49.144;8.212;2023-01-25T08:23:35;14.48;;;11.30;;
2486;SDS011;1254;49.144;8.212;2023-01-25T08:26:04;13.90;;;9.38;;
2486;SDS011;1254;49.144;8.212;2023-01-25T08:28:34;13.63;;;9.00;;
2486;SDS011;1254;49.144;8.212;2023-01-25T08:31:06;19.38;;;10.32;;
2486;SDS011;1254;49.144;8.212;2023-01-25T08:33:34;26.20;;;12.23;;
2486;SDS011;1254;49.144;8.212;2023-01-25T08:36:02;23.45;;;11.82;;
2486;SDS011;1254;49.144;8.212;2023-01-25T08:38:31;17.35;;;10.52;;
2486;SDS011;1254;49.144;8.212;2023-01-25T08:41:03;15.05;;;10.00;;
2486;SDS011;1254;49.144;8.212;2023-01-25T08:43:31;19.63;;;12.07;;
2486;SDS011;1254;49.144;8.212;2023-01-25T08:46:01;28.13;;;12.45;;
2486;SDS011;1254;49.144;8.212;2023-01-25T08:48:29;17.88;;;10.20;;
2486;SDS011;1254;49.144;8.212;2023-01-25T08:50:57;17.15;;;10.80;;
2486;SDS011;1254;49.144;8.212;2023-01-25T08:53:26;18.40;;;10.45;;
2486;SDS011;1254;49.144;8.212;2023-01-25T08:55:54;22.60;;;10.82;;
2486;SDS011;1254;49.144;8.212;2023-01-25T08:58:22;24.05;;;9.43;;
2486;SDS011;1254;49.144;8.212;2023-01-25T09:00:50;16.23;;;9.95;;
2486;SDS011;1254;49.144;8.212;2023-01-25T09:03:19;14.43;;;10.05;;
2486;SDS011;1254;49.144;8.212;2023-01-25T09:05:47;21.27;;;10.80;;
2486;SDS011;1254;49.144;8.212;2023-01-25T09:08:16;15.60;;;10.70;;
2486;SDS011;1254;49.144;8.212;2023-01-25T09:10:44;15.20;;;9.63;;
2486;SDS011;1254;49.144;8.212;2023-01-25T09:13:12;19.73;;;10.55;;
2486;SDS011;1254;49.144;8.212;2023-01-25T09:15:41;14.10;;;8.50;;
2486;SDS011;1254;49.144;8.212;2023-01-25T09:18:09;24.02;;;9.20;;
2486;SDS011;1254;49.144;8.212;2023-01-25T09:20:39;27.27;;;9.70;;
2486;SDS011;1254;49.144;8.212;2023-01-25T09:23:07;19.45;;;10.00;;
2486;SDS011;1254;49.144;8.212;2023-01-25T09:25:35;13.38;;;9.00;;
2486;SDS011;1254;49.144;8.212;2023-01-25T09:28:03;14.40;;;9.70;;
2486;SDS011;1254;49.144;8.212;2023-01-25T09:30:36;15.70;;;9.25;;
2486;SDS011;1254;49.144;8.212;2023-01-25T09:33:06;14.55;;;10.80;;
2486;SDS011;1254;49.144;8.212;2023-01-25T09:35:34;17.75;;;10.23;;
2486;SDS011;1254;49.144;8.212;2023-01-25T09:38:04;21.67;;;11.57;;
2486;SDS011;1254;49.144;8.212;2023-01-25T09:40:35;18.27;;;11.15;;
2486;SDS011;1254;49.144;8.212;2023-01-25T09:43:08;19.38;;;11.88;;
2486;SDS011;1254;49.144;8.212;2023-01-25T09:45:41;18.63;;;12.20;;
2486;SDS011;1254;49.144;8.212;2023-01-25T09:48:12;18.40;;;10.82;;
2486;SDS011;1254;49.144;8.212;2023-01-25T09:50:56;20.73;;;11.68;;
2486;SDS011;1254;49.144;8.212;2023-01-25T09:53:31;20.80;;;12.02;;
2486;SDS011;1254;49.144;8.212;2023-01-25T09:56:02;17.10;;;11.07;;
2486;SDS011;1254;49.144;8.212;2023-01-25T09:58:32;15.23;;;9.77;;
2486;SDS011;1254;49.144;8.212;2023-01-25T10:01:17;16.52;;;10.38;;
2486;SDS011;1254;49.144;8.212;2023-01-25T10:03:52;15.30;;;9.85;;
2486;SDS011;1254;49.144;8.212;2023-01-25T10:06:22;14.40;;;8.73;;
2486;SDS011;1254;49.144;8.212;2023-01-25T10:08:54;18.20;;;10.70;;
2486;SDS011;1254;49.144;8.212;2023-01-25T10:11:25;17.52;;;10.00;;
2486;SDS011;1254;49.144;8.212;2023-01-25T10:13:54;13.77;;;9.73;;
2486;SDS011;1254;49.144;8.212;2023-01-25T10:16:25;16.58;;;9.60;;
2486;SDS011;1254;49.144;8.212;2023-01-25T10:19:01;10.77;;;7.75;;
2486;SDS011;1254;49.144;8.212;2023-01-25T10:21:33;15.77;;;8.70;;
2486;SDS011;1254;49.144;8.212;2023-01-25T10:26:47;13.63;;;9.95;;
2486;SDS011;1254;49.144;8.212;2023-01-25T10:29:17;11.75;;;8.77;;
2486;SDS011;1254;49.144;8.212;2023-01-25T10:31:47;10.20;;;7.70;;
2486;SDS011;1254;49.144;8.212;2023-01-25T10:34:18;14.25;;;8.50;;
2486;SDS011;1254;49.144;8.212;2023-01-25T10:36:48;11.52;;;8.10;;
2486;SDS011;1254;49.144;8.212;2023-01-25T10:39:17;12.13;;;8.18;;
2486;SDS011;1254;49.144;8.212;2023-01-25T10:41:48;11.13;;;8.00;;
2486;SDS011;1254;49.144;8.212;2023-01-25T10:44:17;13.57;;;8.20;;
2486;SDS011;1254;49.144;8.212;2023-01-25T10:46:51;16.38;;;7.53;;
2486;SDS011;1254;49.144;8.212;2023-01-25T10:49:22;12.18;;;9.27;;
2486;SDS011;1254;49.144;8.212;2023-01-25T10:51:51;19.17;;;8.05;;
2486;SDS011;1254;49.144;8.212;2023-01-25T10:54:19;11.73;;;7.25;;
2486;SDS011;1254;49.144;8.212;2023-01-25T10:56:50;10.70;;;7.03;;
2486;SDS011;1254;49.144;8.212;2023-01-25T10:59:20;18.17;;;9.07;;
2486;SDS011;1254;49.144;8.212;2023-01-25T11:01:49;17.95;;;8.55;;
2486;SDS011;1254;49.144;8.212;2023-01-25T11:04:22;12.00;;;8.43;;
2486;SDS011;1254;49.144;8.212;2023-01-25T11:06:51;12.65;;;9.00;;
2486;SDS011;1254;49.144;8.212;2023-01-25T11:09:29;16.40;;;9.50;;
2486;SDS011;1254;49.144;8.212;2023-01-25T11:11:59;13.57;;;8.95;;
2486;SDS011;1254;49.144;8.212;2023-01-25T11:14:28;13.10;;;8.63;;
2486;SDS011;1254;49.144;8.212;2023-01-25T11:17:20;15.07;;;8.77;;
2486;SDS011;1254;49.144;8.212;2023-01-25T11:19:49;18.67;;;9.13;;
2486;SDS011;1254;49.144;8.212;2023-01-25T11:22:31;16.23;;;8.45;;
2486;SDS011;1254;49.144;8.212;2023-01-25T11:25:01;15.40;;;9.25;;
2486;SDS011;1254;49.144;8.212;2023-01-25T11:27:46;14.95;;;10.45;;
2486;SDS011;1254;49.144;8.212;2023-01-25T11:30:15;12.60;;;9.07;;
2486;SDS011;1254;49.144;8.212;2023-01-25T11:32:43;16.83;;;10.43;;
2486;SDS011;1254;49.144;8.212;2023-01-25T11:35:12;18.88;;;11.05;;
2486;SDS011;1254;49.144;8.212;2023-01-25T11:37:45;16.15;;;11.40;;
2486;SDS011;1254;49.144;8.212;2023-01-25T11:40:21;15.52;;;11.05;;
2486;SDS011;1254;49.144;8.212;2023-01-25T11:42:58;18.15;;;11.27;;
2486;SDS011;1254;49.144;8.212;2023-01-25T11:45:35;14.25;;;9.60;;
2486;SDS011;1254;49.144;8.212;2023-01-25T11:48:17;13.63;;;10.00;;
2486;SDS011;1254;49.144;8.212;2023-01-25T11:50:51;14.68;;;9.18;;
2486;SDS011;1254;49.144;8.212;2023-01-25T11:53:26;16.42;;;9.25;;
2486;SDS011;1254;49.144;8.212;2023-01-25T11:55:59;13.73;;;8.55;;
2486;SDS011;1254;49.144;8.212;2023-01-25T11:58:34;13.00;;;9.50;;
2486;SDS011;1254;49.144;8.212;2023-01-25T12:01:09;13.35;;;8.70;;
2486;SDS011;1254;49.144;8.212;2023-01-25T12:03:52;18.45;;;10.40;;
2486;SDS011;1254;49.144;8.212;2023-01-25T12:06:34;15.68;;;11.13;;
2486;SDS011;1254;49.144;8.212;2023-01-25T12:09:12;15.00;;;9.95;;
2486;SDS011;1254;49.144;8.212;2023-01-25T12:11:47;17.58;;;9.77;;
2486;SDS011;1254;49.144;8.212;2023-01-25T12:14:22;19.42;;;10.82;;
2486;SDS011;1254;49.144;8.212;2023-01-25T12:17:00;30.95;;;11.15;;
2486;SDS011;1254;49.144;8.212;2023-01-25T12:19:38;15.85;;;9.93;;
2486;SDS011;1254;49.144;8.212;2023-01-25T12:22:22;14.70;;;10.52;;
2486;SDS011;1254;49.144;8.212;2023-01-25T12:24:56;15.77;;;10.63;;
2486;SDS011;1254;49.144;8.212;2023-01-25T12:27:29;18.35;;;10.07;;
2486;SDS011;1254;49.144;8.212;2023-01-25T12:30:01;16.40;;;11.05;;
2486;SDS011;1254;49.144;8.212;2023-01-25T12:32:32;16.17;;;10.25;;
2486;SDS011;1254;49.144;8.212;2023-01-25T12:35:03;22.33;;;10.90;;
2486;SDS011;1254;49.144;8.212;2023-01-25T12:37:36;20.58;;;12.02;;
2486;SDS011;1254;49.144;8.212;2023-01-25T12:40:08;24.17;;;14.60;;
2486;SDS011;1254;49.144;8.212;2023-01-25T12:42:39;25.55;;;15.25;;
2486;SDS011;1254;49.144;8.212;2023-01-25T12:45:11;23.90;;;14.05;;
2486;SDS011;1254;49.144;8.212;2023-01-25T12:47:42;19.83;;;13.02;;
2486;SDS011;1254;49.144;8.212;2023-01-25T12:50:12;20.17;;;12.10;;
2486;SDS011;1254;49.144;8.212;2023-01-25T12:52:44;21.38;;;12.60;;
2486;SDS011;1254;49.144;8.212;2023-01-25T12:55:13;21.90;;;13.93;;
2486;SDS011;1254;49.144;8.212;2023-01-25T12:57:42;23.30;;;15.15;;
2486;SDS011;1254;49.144;8.212;2023-01-25T13:00:18;28.17;;;15.02;;
2486;SDS011;1254;49.144;8.212;2023-01-25T13:02:59;23.00;;;14.35;;
2486;SDS011;1254;49.144;8.212;2023-01-25T13:05:30;22.85;;;14.15;;
2486;SDS011;1254;49.144;8.212;2023-01-25T13:08:04;25.13;;;14.52;;
2486;SDS011;1254;49.144;8.212;2023-01-25T13:10:34;26.77;;;15.73;;
2486;SDS011;1254;49.144;8.212;2023-01-25T13:13:17;34.78;;;19.08;;
2486;SDS011;1254;49.144;8.212;2023-01-25T13:15:48;29.08;;;15.48;;
2486;SDS011;1254;49.144;8.212;2023-01-25T13:18:34;22.33;;;15.45;;
2486;SDS011;1254;49.144;8.212;2023-01-25T13:21:03;31.45;;;18.00;;
2486;SDS011;1254;49.144;8.212;2023-01-25T13:23:37;27.88;;;16.20;;
2486;SDS011;1254;49.144;8.212;2023-01-25T13:28:56;27.40;;;15.77;;
2486;SDS011;1254;49.144;8.212;2023-01-25T13:31:43;30.08;;;16.30;;
2486;SDS011;1254;49.144;8.212;2023-01-25T13:34:54;31.65;;;16.92;;
2486;SDS011;1254;49.144;8.212;2023-01-25T13:37:12;21.58;;;12.90;;
2486;SDS011;1254;49.144;8.212;2023-01-25T13:39:43;26.67;;;15.32;;
2486;SDS011;1254;49.144;8.212;2023-01-25T13:42:17;27.13;;;14.18;;
2486;SDS011;1254;49.144;8.212;2023-01-25T13:44:47;25.67;;;15.15;;
2486;SDS011;1254;49.144;8.212;2023-01-25T13:47:16;25.52;;;15.57;;
2486;SDS011;1254;49.144;8.212;2023-01-25T13:49:47;28.52;;;17.15;;
2486;SDS011;1254;49.144;8.212;2023-01-25T13:52:18;24.48;;;15.95;;
2486;SDS011;1254;49.144;8.212;2023-01-25T13:54:47;24.58;;;15.93;;
2486;SDS011;1254;49.144;8.212;2023-01-25T13:57:18;23.38;;;14.27;;
2486;SDS011;1254;49.144;8.212;2023-01-25T13:59:47;28.58;;;14.60;;
2486;SDS011;1254;49.144;8.212;2023-01-25T14:02:15;25.08;;;16.55;;
2486;SDS011;1254;49.144;8.212;2023-01-25T14:04:44;24.50;;;15.50;;
2486;SDS011;1254;49.144;8.212;2023-01-25T14:07:14;25.95;;;12.90;;
2486;SDS011;1254;49.144;8.212;2023-01-25T14:09:44;21.30;;;13.23;;
2486;SDS011;1254;49.144;8.212;2023-01-25T14:12:13;20.77;;;13.90;;
2486;SDS011;1254;49.144;8.212;2023-01-25T14:14:48;23.00;;;13.80;;
2486;SDS011;1254;49.144;8.212;2023-01-25T14:17:17;23.70;;;12.45;;
2486;SDS011;1254;49.144;8.212;2023-01-25T14:19:46;21.52;;;12.82;;
2486;SDS011;1254;49.144;8.212;2023-01-25T14:22:19;22.98;;;12.60;;
2486;SDS011;1254;49.144;8.212;2023-01-25T14:25:06;20.50;;;12.65;;
2486;SDS011;1254;49.144;8.212;2023-01-25T14:27:34;25.40;;;13.48;;
2486;SDS011;1254;49.144;8.212;2023-01-25T14:30:03;20.90;;;12.25;;
2486;SDS011;1254;49.144;8.212;2023-01-25T14:32:31;21.05;;;12.45;;
2486;SDS011;1254;49.144;8.212;2023-01-25T14:37:44;21.95;;;12.73;;
2486;SDS011;1254;49.144;8.212;2023-01-25T14:40:14;22.17;;;12.45;;
2486;SDS011;1254;49.144;8.212;2023-01-25T14:42:46;21.42;;;13.60;;
2486;SDS011;1254;49.144;8.212;2023-01-25T14:45:15;21.73;;;11.98;;
2486;SDS011;1254;49.144;8.212;2023-01-25T14:47:46;21.20;;;14.10;;
2486;SDS011;1254;49.144;8.212;2023-01-25T14:50:30;22.30;;;11.60;;
2486;SDS011;1254;49.144;8.212;2023-01-25T14:52:59;20.35;;;12.52;;
2486;SDS011;1254;49.144;8.212;2023-01-25T14:55:34;25.13;;;13.10;;
2486;SDS011;1254;49.144;8.212;2023-01-25T14:58:03;19.45;;;11.77;;
2486;SDS011;1254;49.144;8.212;2023-01-25T15:00:31;20.95;;;12.45;;
2486;SDS011;1254;49.144;8.212;2023-01-25T15:03:02;23.13;;;13.07;;
2486;SDS011;1254;49.144;8.212;2023-01-25T15:05:32;25.17;;;14.23;;
2486;SDS011;1254;49.144;8.212;2023-01-25T15:08:12;20.73;;;13.73;;
2486;SDS011;1254;49.144;8.212;2023-01-25T15:10:51;22.30;;;12.27;;
2486;SDS011;1254;49.144;8.212;2023-01-25T15:13:21;20.90;;;12.70;;
2486;SDS011;1254;49.144;8.212;2023-01-25T15:15:50;20.95;;;12.02;;
2486;SDS011;1254;49.144;8.212;2023-01-25T15:21:08;24.48;;;13.18;;
2486;SDS011;1254;49.144;8.212;2023-01-25T15:23:37;18.95;;;11.98;;